sensor_id;sensor_type;location;lat;lon;timestamp;P1;durP1;ratioP1;P2;durP2;ratioP2
61336;SDS011;47212;41.326;2.104;2022-12-18T00:04:30;7.90;;;4.60;;
61336;SDS011;47212;41.326;2.104;2022-12-18T00:09:36;8.23;;;5.35;;
61336;SDS011;47212;41.326;2.104;2022-12-18T00:14:46;8.35;;;5.45;;
61336;SDS011;47212;41.326;2.104;2022-12-18T00:19:48;8.52;;;6.10;;
61336;SDS011;47212;41.326;2.104;2022-12-18T00:24:53;8.18;;;4.82;;
61336;SDS011;47212;41.326;2.104;2022-12-18T00:29:59;8.43;;;5.75;;
61336;SDS011;47212;41.326;2.104;2022-12-18T00:40:09;8.30;;;5.53;;
61336;SDS011;47212;41.326;2.104;2022-12-18T00:45:27;9.18;;;5.88;;
61336;SDS011;47212;41.326;2.104;2022-12-18T00:50:33;8.00;;;5.63;;
61336;SDS011;47212;41.326;2.104;2022-12-18T00:55:42;7.95;;;6.25;;
61336;SDS011;47212;41.326;2.104;2022-12-18T01:00:47;6.63;;;5.43;;
61336;SDS011;47212;41.326;2.104;2022-12-18T01:05:51;8.38;;;5.60;;
61336;SDS011;47212;41.326;2.104;2022-12-18T01:10:55;10.55;;;6.25;;
61336;SDS011;47212;41.326;2.104;2022-12-18T01:16:01;7.40;;;5.63;;
61336;SDS011;47212;41.326;2.104;2022-12-18T01:21:20;8.07;;;6.22;;
61336;SDS011;47212;41.326;2.104;2022-12-18T01:26:31;8.10;;;6.20;;
61336;SDS011;47212;41.326;2.104;2022-12-18T01:31:43;8.97;;;6.17;;
61336;SDS011;47212;41.326;2.104;2022-12-18T01:36:48;10.07;;;6.68;;
61336;SDS011;47212;41.326;2.104;2022-12-18T01:41:54;7.55;;;6.05;;
61336;SDS011;47212;41.326;2.104;2022-12-18T01:47:18;8.93;;;6.35;;
61336;SDS011;47212;41.326;2.104;2022-12-18T01:53:05;8.75;;;6.15;;
61336;SDS011;47212;41.326;2.104;2022-12-18T01:58:29;7.32;;;5.50;;
61336;SDS011;47212;41.326;2.104;2022-12-18T02:05:18;8.63;;;7.10;;
61336;SDS011;47212;41.326;2.104;2022-12-18T02:10:44;8.83;;;6.97;;
61336;SDS011;47212;41.326;2.104;2022-12-18T02:16:29;9.55;;;6.50;;
61336;SDS011;47212;41.326;2.104;2022-12-18T02:27:16;9.65;;;6.60;;
61336;SDS011;47212;41.326;2.104;2022-12-18T02:32:25;12.15;;;6.60;;
61336;SDS011;47212;41.326;2.104;2022-12-18T02:37:36;9.90;;;5.88;;
61336;SDS011;47212;41.326;2.104;2022-12-18T02:42:45;9.80;;;7.70;;
61336;SDS011;47212;41.326;2.104;2022-12-18T02:53:26;7.53;;;5.53;;
61336;SDS011;47212;41.326;2.104;2022-12-18T02:59:02;9.75;;;6.90;;
61336;SDS011;47212;41.326;2.104;2022-12-18T03:10:11;8.90;;;6.50;;
61336;SDS011;47212;41.326;2.104;2022-12-18T03:15:31;10.32;;;6.32;;
61336;SDS011;47212;41.326;2.104;2022-12-18T03:20:49;7.90;;;6.18;;
61336;SDS011;47212;41.326;2.104;2022-12-18T03:26:02;9.10;;;6.70;;
61336;SDS011;47212;41.326;2.104;2022-12-18T03:31:15;7.88;;;5.90;;
61336;SDS011;47212;41.326;2.104;2022-12-18T03:36:21;9.18;;;6.85;;
61336;SDS011;47212;41.326;2.104;2022-12-18T03:41:38;7.37;;;6.30;;
61336;SDS011;47212;41.326;2.104;2022-12-18T03:47:16;7.78;;;5.90;;
61336;SDS011;47212;41.326;2.104;2022-12-18T03:58:09;9.00;;;6.40;;
61336;SDS011;47212;41.326;2.104;2022-12-18T04:03:29;8.80;;;6.35;;
61336;SDS011;47212;41.326;2.104;2022-12-18T04:08:41;8.50;;;5.85;;
61336;SDS011;47212;41.326;2.104;2022-12-18T04:13:48;10.30;;;5.85;;
61336;SDS011;47212;41.326;2.104;2022-12-18T04:18:57;13.25;;;5.88;;
61336;SDS011;47212;41.326;2.104;2022-12-18T04:24:11;7.70;;;5.82;;
61336;SDS011;47212;41.326;2.104;2022-12-18T04:29:29;7.63;;;6.13;;
61336;SDS011;47212;41.326;2.104;2022-12-18T04:34:36;6.55;;;5.45;;
61336;SDS011;47212;41.326;2.104;2022-12-18T04:39:42;8.05;;;6.07;;
61336;SDS011;47212;41.326;2.104;2022-12-18T04:44:53;11.20;;;6.47;;
61336;SDS011;47212;41.326;2.104;2022-12-18T04:49:57;7.40;;;5.72;;
61336;SDS011;47212;41.326;2.104;2022-12-18T04:55:01;6.90;;;5.35;;
61336;SDS011;47212;41.326;2.104;2022-12-18T05:06:57;8.60;;;5.68;;
61336;SDS011;47212;41.326;2.104;2022-12-18T05:13:34;7.57;;;5.53;;
61336;SDS011;47212;41.326;2.104;2022-12-18T05:18:45;8.15;;;5.70;;
61336;SDS011;47212;41.326;2.104;2022-12-18T05:23:51;7.68;;;5.45;;
61336;SDS011;47212;41.326;2.104;2022-12-18T05:29:04;7.75;;;5.93;;
61336;SDS011;47212;41.326;2.104;2022-12-18T05:34:09;7.30;;;5.70;;
61336;SDS011;47212;41.326;2.104;2022-12-18T05:39:20;7.97;;;6.55;;
61336;SDS011;47212;41.326;2.104;2022-12-18T05:44:29;6.40;;;5.30;;
61336;SDS011;47212;41.326;2.104;2022-12-18T05:49:36;8.85;;;5.38;;
61336;SDS011;47212;41.326;2.104;2022-12-18T05:54:38;8.68;;;6.70;;
61336;SDS011;47212;41.326;2.104;2022-12-18T05:59:53;7.80;;;6.18;;
61336;SDS011;47212;41.326;2.104;2022-12-18T06:06:50;9.65;;;5.93;;
61336;SDS011;47212;41.326;2.104;2022-12-18T06:13:51;8.82;;;5.45;;
61336;SDS011;47212;41.326;2.104;2022-12-18T06:36:24;8.23;;;6.03;;
61336;SDS011;47212;41.326;2.104;2022-12-18T06:41:29;7.35;;;5.40;;
61336;SDS011;47212;41.326;2.104;2022-12-18T06:46:55;7.20;;;5.70;;
61336;SDS011;47212;41.326;2.104;2022-12-18T06:52:01;7.40;;;6.20;;
61336;SDS011;47212;41.326;2.104;2022-12-18T06:57:05;6.93;;;5.85;;
61336;SDS011;47212;41.326;2.104;2022-12-18T07:02:12;8.75;;;6.32;;
61336;SDS011;47212;41.326;2.104;2022-12-18T07:07:21;8.57;;;6.20;;
61336;SDS011;47212;41.326;2.104;2022-12-18T07:12:24;7.85;;;5.68;;
61336;SDS011;47212;41.326;2.104;2022-12-18T07:17:31;20.52;;;14.23;;
61336;SDS011;47212;41.326;2.104;2022-12-18T07:22:56;9.15;;;7.65;;
61336;SDS011;47212;41.326;2.104;2022-12-18T07:28:06;9.93;;;7.10;;
61336;SDS011;47212;41.326;2.104;2022-12-18T07:33:17;6.80;;;5.13;;
61336;SDS011;47212;41.326;2.104;2022-12-18T07:38:21;8.32;;;5.70;;
61336;SDS011;47212;41.326;2.104;2022-12-18T07:43:35;7.70;;;5.40;;
61336;SDS011;47212;41.326;2.104;2022-12-18T07:48:52;6.28;;;5.03;;
61336;SDS011;47212;41.326;2.104;2022-12-18T07:54:00;6.90;;;4.93;;
61336;SDS011;47212;41.326;2.104;2022-12-18T07:59:08;6.05;;;4.60;;
61336;SDS011;47212;41.326;2.104;2022-12-18T08:04:15;7.07;;;5.43;;
61336;SDS011;47212;41.326;2.104;2022-12-18T08:09:23;8.00;;;5.60;;
61336;SDS011;47212;41.326;2.104;2022-12-18T08:14:30;6.40;;;4.47;;
61336;SDS011;47212;41.326;2.104;2022-12-18T08:19:35;8.35;;;5.40;;
61336;SDS011;47212;41.326;2.104;2022-12-18T08:24:39;13.02;;;6.05;;
61336;SDS011;47212;41.326;2.104;2022-12-18T08:29:47;8.52;;;5.43;;
61336;SDS011;47212;41.326;2.104;2022-12-18T08:34:59;7.90;;;5.60;;
61336;SDS011;47212;41.326;2.104;2022-12-18T08:40:05;5.35;;;4.47;;
61336;SDS011;47212;41.326;2.104;2022-12-18T08:45:12;6.63;;;5.03;;
61336;SDS011;47212;41.326;2.104;2022-12-18T08:50:17;6.45;;;4.93;;
61336;SDS011;47212;41.326;2.104;2022-12-18T08:55:23;6.00;;;4.75;;
61336;SDS011;47212;41.326;2.104;2022-12-18T09:00:27;6.10;;;4.40;;
61336;SDS011;47212;41.326;2.104;2022-12-18T09:05:32;6.78;;;4.82;;
61336;SDS011;47212;41.326;2.104;2022-12-18T09:10:47;6.95;;;5.00;;
61336;SDS011;47212;41.326;2.104;2022-12-18T09:15:55;6.78;;;4.47;;
61336;SDS011;47212;41.326;2.104;2022-12-18T09:21:07;5.25;;;4.28;;
61336;SDS011;47212;41.326;2.104;2022-12-18T09:26:16;5.57;;;4.40;;
61336;SDS011;47212;41.326;2.104;2022-12-18T09:31:27;5.30;;;3.90;;
61336;SDS011;47212;41.326;2.104;2022-12-18T09:36:30;6.05;;;4.82;;
61336;SDS011;47212;41.326;2.104;2022-12-18T09:41:46;8.27;;;5.68;;
61336;SDS011;47212;41.326;2.104;2022-12-18T09:52:17;11.07;;;7.13;;
61336;SDS011;47212;41.326;2.104;2022-12-18T09:57:40;8.80;;;6.57;;
61336;SDS011;47212;41.326;2.104;2022-12-18T10:03:01;7.35;;;5.57;;
61336;SDS011;47212;41.326;2.104;2022-12-18T10:19:53;5.05;;;4.13;;
61336;SDS011;47212;41.326;2.104;2022-12-18T10:30:42;5.82;;;4.60;;
61336;SDS011;47212;41.326;2.104;2022-12-18T10:35:46;6.40;;;4.97;;
61336;SDS011;47212;41.326;2.104;2022-12-18T10:41:23;6.13;;;4.85;;
61336;SDS011;47212;41.326;2.104;2022-12-18T10:46:30;5.63;;;4.25;;
61336;SDS011;47212;41.326;2.104;2022-12-18T10:51:40;6.65;;;4.65;;
61336;SDS011;47212;41.326;2.104;2022-12-18T10:57:13;7.03;;;5.00;;
61336;SDS011;47212;41.326;2.104;2022-12-18T11:02:35;7.60;;;4.82;;
61336;SDS011;47212;41.326;2.104;2022-12-18T11:07:49;5.57;;;4.22;;
61336;SDS011;47212;41.326;2.104;2022-12-18T11:18:16;5.68;;;4.20;;
61336;SDS011;47212;41.326;2.104;2022-12-18T11:23:25;7.30;;;4.97;;
61336;SDS011;47212;41.326;2.104;2022-12-18T11:28:41;6.47;;;4.78;;
61336;SDS011;47212;41.326;2.104;2022-12-18T11:39:40;6.65;;;4.65;;
61336;SDS011;47212;41.326;2.104;2022-12-18T11:50:43;6.57;;;4.43;;
61336;SDS011;47212;41.326;2.104;2022-12-18T11:56:23;8.02;;;4.93;;
61336;SDS011;47212;41.326;2.104;2022-12-18T12:01:42;7.97;;;4.50;;
61336;SDS011;47212;41.326;2.104;2022-12-18T12:07:21;8.10;;;5.10;;
61336;SDS011;47212;41.326;2.104;2022-12-18T12:13:02;6.85;;;4.93;;
61336;SDS011;47212;41.326;2.104;2022-12-18T12:29:09;6.75;;;4.43;;
61336;SDS011;47212;41.326;2.104;2022-12-18T12:34:39;6.47;;;4.68;;
61336;SDS011;47212;41.326;2.104;2022-12-18T12:40:13;9.80;;;5.88;;
61336;SDS011;47212;41.326;2.104;2022-12-18T12:45:50;7.50;;;5.60;;
61336;SDS011;47212;41.326;2.104;2022-12-18T12:51:24;8.18;;;5.90;;
61336;SDS011;47212;41.326;2.104;2022-12-18T12:56:52;8.38;;;6.57;;
61336;SDS011;47212;41.326;2.104;2022-12-18T13:02:36;8.55;;;5.75;;
61336;SDS011;47212;41.326;2.104;2022-12-18T13:08:02;8.05;;;5.22;;
61336;SDS011;47212;41.326;2.104;2022-12-18T13:13:12;6.80;;;4.10;;
61336;SDS011;47212;41.326;2.104;2022-12-18T13:18:25;9.57;;;4.68;;
61336;SDS011;47212;41.326;2.104;2022-12-18T13:23:35;6.13;;;4.18;;
61336;SDS011;47212;41.326;2.104;2022-12-18T13:28:51;6.57;;;4.53;;
61336;SDS011;47212;41.326;2.104;2022-12-18T13:34:12;7.53;;;4.40;;
61336;SDS011;47212;41.326;2.104;2022-12-18T13:39:31;6.45;;;4.55;;
61336;SDS011;47212;41.326;2.104;2022-12-18T13:44:40;7.78;;;4.40;;
61336;SDS011;47212;41.326;2.104;2022-12-18T13:49:52;6.95;;;4.45;;
61336;SDS011;47212;41.326;2.104;2022-12-18T13:55:03;8.02;;;4.70;;
61336;SDS011;47212;41.326;2.104;2022-12-18T14:00:23;7.43;;;4.55;;
61336;SDS011;47212;41.326;2.104;2022-12-18T14:05:38;7.78;;;4.20;;
61336;SDS011;47212;41.326;2.104;2022-12-18T14:10:47;7.07;;;4.07;;
61336;SDS011;47212;41.326;2.104;2022-12-18T14:15:54;6.75;;;4.47;;
61336;SDS011;47212;41.326;2.104;2022-12-18T14:21:04;5.95;;;4.03;;
61336;SDS011;47212;41.326;2.104;2022-12-18T14:26:30;6.82;;;4.32;;
61336;SDS011;47212;41.326;2.104;2022-12-18T14:31:35;7.30;;;4.60;;
61336;SDS011;47212;41.326;2.104;2022-12-18T14:36:44;8.27;;;5.30;;
61336;SDS011;47212;41.326;2.104;2022-12-18T14:42:03;6.57;;;5.07;;
61336;SDS011;47212;41.326;2.104;2022-12-18T14:47:12;6.82;;;4.50;;
61336;SDS011;47212;41.326;2.104;2022-12-18T14:52:26;10.43;;;5.00;;
61336;SDS011;47212;41.326;2.104;2022-12-18T14:57:52;9.38;;;4.65;;
61336;SDS011;47212;41.326;2.104;2022-12-18T15:03:12;7.35;;;4.28;;
61336;SDS011;47212;41.326;2.104;2022-12-18T15:08:30;10.25;;;4.40;;
61336;SDS011;47212;41.326;2.104;2022-12-18T15:13:40;7.68;;;4.00;;
61336;SDS011;47212;41.326;2.104;2022-12-18T15:18:47;6.18;;;3.92;;
61336;SDS011;47212;41.326;2.104;2022-12-18T15:23:52;8.07;;;5.13;;
61336;SDS011;47212;41.326;2.104;2022-12-18T15:29:15;10.23;;;6.03;;
61336;SDS011;47212;41.326;2.104;2022-12-18T15:34:38;5.55;;;3.88;;
61336;SDS011;47212;41.326;2.104;2022-12-18T15:39:42;6.93;;;4.20;;
61336;SDS011;47212;41.326;2.104;2022-12-18T15:44:51;6.05;;;4.25;;
61336;SDS011;47212;41.326;2.104;2022-12-18T15:50:00;10.13;;;4.78;;
61336;SDS011;47212;41.326;2.104;2022-12-18T15:55:16;9.35;;;4.45;;
61336;SDS011;47212;41.326;2.104;2022-12-18T16:00:45;6.38;;;4.32;;
61336;SDS011;47212;41.326;2.104;2022-12-18T16:06:00;8.55;;;4.88;;
61336;SDS011;47212;41.326;2.104;2022-12-18T16:11:14;5.65;;;4.03;;
61336;SDS011;47212;41.326;2.104;2022-12-18T16:16:51;8.65;;;4.80;;
61336;SDS011;47212;41.326;2.104;2022-12-18T16:22:00;5.80;;;4.70;;
61336;SDS011;47212;41.326;2.104;2022-12-18T16:27:09;6.97;;;4.90;;
61336;SDS011;47212;41.326;2.104;2022-12-18T16:32:15;8.95;;;5.38;;
61336;SDS011;47212;41.326;2.104;2022-12-18T16:37:26;10.25;;;5.28;;
61336;SDS011;47212;41.326;2.104;2022-12-18T16:42:46;6.00;;;4.40;;
61336;SDS011;47212;41.326;2.104;2022-12-18T16:47:56;7.53;;;5.13;;
61336;SDS011;47212;41.326;2.104;2022-12-18T16:53:01;6.25;;;4.68;;
61336;SDS011;47212;41.326;2.104;2022-12-18T16:58:30;5.65;;;4.32;;
61336;SDS011;47212;41.326;2.104;2022-12-18T17:03:36;8.18;;;4.47;;
61336;SDS011;47212;41.326;2.104;2022-12-18T17:08:45;9.05;;;5.30;;
61336;SDS011;47212;41.326;2.104;2022-12-18T17:13:57;8.27;;;5.65;;
61336;SDS011;47212;41.326;2.104;2022-12-18T17:19:02;10.38;;;5.68;;
61336;SDS011;47212;41.326;2.104;2022-12-18T17:24:16;8.68;;;5.78;;
61336;SDS011;47212;41.326;2.104;2022-12-18T17:29:23;7.95;;;6.50;;
61336;SDS011;47212;41.326;2.104;2022-12-18T17:34:30;7.75;;;5.55;;
61336;SDS011;47212;41.326;2.104;2022-12-18T17:39:37;7.78;;;5.65;;
61336;SDS011;47212;41.326;2.104;2022-12-18T17:44:50;8.75;;;6.05;;
61336;SDS011;47212;41.326;2.104;2022-12-18T17:50:01;10.63;;;6.25;;
61336;SDS011;47212;41.326;2.104;2022-12-18T17:55:05;8.02;;;6.32;;
61336;SDS011;47212;41.326;2.104;2022-12-18T18:00:10;11.30;;;6.57;;
61336;SDS011;47212;41.326;2.104;2022-12-18T18:05:39;8.52;;;5.20;;
61336;SDS011;47212;41.326;2.104;2022-12-18T18:10:43;6.60;;;5.03;;
61336;SDS011;47212;41.326;2.104;2022-12-18T18:15:56;7.78;;;5.80;;
61336;SDS011;47212;41.326;2.104;2022-12-18T18:21:04;7.97;;;6.35;;
61336;SDS011;47212;41.326;2.104;2022-12-18T18:26:13;8.68;;;5.78;;
61336;SDS011;47212;41.326;2.104;2022-12-18T18:31:21;8.05;;;6.10;;
61336;SDS011;47212;41.326;2.104;2022-12-18T18:36:43;8.98;;;6.45;;
61336;SDS011;47212;41.326;2.104;2022-12-18T18:41:47;9.30;;;7.60;;
61336;SDS011;47212;41.326;2.104;2022-12-18T18:46:59;7.68;;;6.57;;
61336;SDS011;47212;41.326;2.104;2022-12-18T18:52:11;9.25;;;7.28;;
61336;SDS011;47212;41.326;2.104;2022-12-18T18:57:19;13.50;;;10.60;;
61336;SDS011;47212;41.326;2.104;2022-12-18T19:02:32;9.75;;;7.80;;
61336;SDS011;47212;41.326;2.104;2022-12-18T19:07:45;11.85;;;7.90;;
61336;SDS011;47212;41.326;2.104;2022-12-18T19:12:53;15.48;;;9.98;;
61336;SDS011;47212;41.326;2.104;2022-12-18T19:18:21;13.85;;;9.57;;
61336;SDS011;47212;41.326;2.104;2022-12-18T19:23:27;12.55;;;8.75;;
61336;SDS011;47212;41.326;2.104;2022-12-18T19:28:31;9.00;;;7.43;;
61336;SDS011;47212;41.326;2.104;2022-12-18T19:33:39;12.30;;;7.32;;
61336;SDS011;47212;41.326;2.104;2022-12-18T19:38:45;8.73;;;6.85;;
61336;SDS011;47212;41.326;2.104;2022-12-18T19:44:04;11.95;;;7.90;;
61336;SDS011;47212;41.326;2.104;2022-12-18T19:49:14;9.82;;;7.53;;
61336;SDS011;47212;41.326;2.104;2022-12-18T19:54:18;9.65;;;7.55;;
61336;SDS011;47212;41.326;2.104;2022-12-18T19:59:27;12.68;;;8.77;;
61336;SDS011;47212;41.326;2.104;2022-12-18T20:04:42;14.50;;;10.25;;
61336;SDS011;47212;41.326;2.104;2022-12-18T20:09:50;15.27;;;10.52;;
61336;SDS011;47212;41.326;2.104;2022-12-18T20:15:05;15.55;;;10.68;;
61336;SDS011;47212;41.326;2.104;2022-12-18T20:20:10;14.85;;;11.20;;
61336;SDS011;47212;41.326;2.104;2022-12-18T20:25:17;12.65;;;9.40;;
61336;SDS011;47212;41.326;2.104;2022-12-18T20:30:29;11.85;;;8.70;;
61336;SDS011;47212;41.326;2.104;2022-12-18T20:36:22;12.18;;;9.00;;
61336;SDS011;47212;41.326;2.104;2022-12-18T20:41:46;12.00;;;8.82;;
61336;SDS011;47212;41.326;2.104;2022-12-18T20:46:53;10.88;;;8.38;;
61336;SDS011;47212;41.326;2.104;2022-12-18T20:51:59;12.27;;;7.82;;
61336;SDS011;47212;41.326;2.104;2022-12-18T20:57:29;11.38;;;8.27;;
61336;SDS011;47212;41.326;2.104;2022-12-18T21:02:41;11.68;;;7.85;;
61336;SDS011;47212;41.326;2.104;2022-12-18T21:07:47;9.13;;;7.70;;
61336;SDS011;47212;41.326;2.104;2022-12-18T21:12:56;10.35;;;7.68;;
61336;SDS011;47212;41.326;2.104;2022-12-18T21:18:07;16.38;;;11.90;;
61336;SDS011;47212;41.326;2.104;2022-12-18T21:23:13;17.58;;;12.30;;
61336;SDS011;47212;41.326;2.104;2022-12-18T21:28:18;15.32;;;10.32;;
61336;SDS011;47212;41.326;2.104;2022-12-18T21:33:45;16.40;;;11.70;;
61336;SDS011;47212;41.326;2.104;2022-12-18T21:39:01;35.58;;;26.17;;
61336;SDS011;47212;41.326;2.104;2022-12-18T21:44:35;16.98;;;13.27;;
61336;SDS011;47212;41.326;2.104;2022-12-18T21:49:44;12.38;;;9.68;;
61336;SDS011;47212;41.326;2.104;2022-12-18T21:54:49;14.00;;;9.27;;
61336;SDS011;47212;41.326;2.104;2022-12-18T21:59:53;11.35;;;8.75;;
61336;SDS011;47212;41.326;2.104;2022-12-18T22:04:57;11.93;;;9.18;;
61336;SDS011;47212;41.326;2.104;2022-12-18T22:10:01;11.70;;;9.18;;
61336;SDS011;47212;41.326;2.104;2022-12-18T22:15:11;10.63;;;8.80;;
61336;SDS011;47212;41.326;2.104;2022-12-18T22:20:27;15.63;;;10.77;;
61336;SDS011;47212;41.326;2.104;2022-12-18T22:25:36;15.15;;;9.35;;
61336;SDS011;47212;41.326;2.104;2022-12-18T22:30:44;17.13;;;10.10;;
61336;SDS011;47212;41.326;2.104;2022-12-18T22:35:54;12.75;;;8.23;;
61336;SDS011;47212;41.326;2.104;2022-12-18T22:41:07;13.45;;;8.52;;
61336;SDS011;47212;41.326;2.104;2022-12-18T22:46:16;12.27;;;8.73;;
61336;SDS011;47212;41.326;2.104;2022-12-18T22:51:30;11.73;;;8.20;;
61336;SDS011;47212;41.326;2.104;2022-12-18T22:56:36;9.88;;;7.22;;
61336;SDS011;47212;41.326;2.104;2022-12-18T23:01:41;11.73;;;8.10;;
61336;SDS011;47212;41.326;2.104;2022-12-18T23:06:59;12.10;;;8.00;;
61336;SDS011;47212;41.326;2.104;2022-12-18T23:12:04;10.68;;;7.70;;
61336;SDS011;47212;41.326;2.104;2022-12-18T23:17:20;8.32;;;6.38;;
61336;SDS011;47212;41.326;2.104;2022-12-18T23:22:33;10.07;;;7.45;;
61336;SDS011;47212;41.326;2.104;2022-12-18T23:33:01;6.93;;;5.75;;
61336;SDS011;47212;41.326;2.104;2022-12-18T23:38:21;9.52;;;6.46;;
61336;SDS011;47212;41.326;2.104;2022-12-18T23:43:27;19.65;;;13.45;;
61336;SDS011;47212;41.326;2.104;2022-12-18T23:48:38;12.65;;;10.35;;
61336;SDS011;47212;41.326;2.104;2022-12-18T23:53:48;10.77;;;7.80;;
61336;SDS011;47212;41.326;2.104;2022-12-18T23:58:57;13.98;;;8.30;;
